Time,TemperatureF,DewpointF,PressureIn,WindDirection,WindDirectionDegrees,WindSpeedMPH,WindSpeedGustMPH,Humidity,HourlyPrecipIn,Conditions,Clouds,dailyrainin,SoftwareType,DateUTC
2013-02-14 00:00:00,23.9,21.9,29.88,NNW,340,0.0,2.0,92,0.00,,,0.00,VWS V14.01,2013-02-14 05:00:00,
2013-02-14 00:15:00,23.7,21.7,29.88,NNW,340,0.0,0.0,92,0.00,,,0.00,VWS V14.01,2013-02-14 05:15:00,
2013-02-14 00:30:00,23.4,21.4,29.89,NNW,340,0.0,0.0,92,0.00,,,0.00,VWS V14.01,2013-02-14 05:30:00,
2013-02-14 00:45:00,23.4,21.4,29.89,NNW,340,0.0,1.0,92,0.00,,,0.00,VWS V14.01,2013-02-14 05:45:00,
2013-02-14 01:00:00,23.7,22.0,29.89,NNW,340,0.0,2.0,93,0.00,,,0.00,VWS V14.01,2013-02-14 06:00:00,
2013-02-14 01:15:00,24.0,22.3,29.89,NNW,340,0.0,2.0,93,0.00,,,0.00,VWS V14.01,2013-02-14 06:15:00,
2013-02-14 01:30:00,24.3,22.6,29.89,NNW,340,0.0,2.0,93,0.00,,,0.00,VWS V14.01,2013-02-14 06:30:00,
2013-02-14 01:45:00,24.3,22.6,29.89,NNW,340,0.0,2.0,93,0.00,,,0.00,VWS V14.01,2013-02-14 06:45:00,
2013-02-14 02:00:00,24.0,22.3,29.89,NNW,340,0.0,1.0,93,0.00,,,0.00,VWS V14.01,2013-02-14 07:00:00,
2013-02-14 02:15:00,24.0,22.3,29.89,NNW,340,0.0,0.0,93,0.00,,,0.00,VWS V14.01,2013-02-14 07:15:00,
2013-02-14 02:30:00,23.6,21.9,29.89,NNW,340,0.0,1.0,93,0.00,,,0.00,VWS V14.01,2013-02-14 07:30:00,
2013-02-14 02:45:00,23.8,22.1,29.89,NNW,340,0.0,1.0,93,0.00,,,0.00,VWS V14.01,2013-02-14 07:45:00,
2013-02-14 03:00:00,23.8,22.1,29.89,SW,214,0.0,1.0,93,0.00,,,0.00,VWS V14.01,2013-02-14 08:00:00,
2013-02-14 03:15:00,24.0,22.3,29.89,SW,214,0.0,1.0,93,0.00,,,0.00,VWS V14.01,2013-02-14 08:15:00,
2013-02-14 03:30:00,24.7,23.0,29.88,SW,214,0.0,1.0,93,0.00,,,0.00,VWS V14.01,2013-02-14 08:30:00,
2013-02-14 03:45:00,25.1,23.4,29.88,SW,214,0.0,2.0,93,0.00,,,0.00,VWS V14.01,2013-02-14 08:45:00,
2013-02-14 04:00:00,25.7,24.0,29.88,SW,214,0.0,2.0,93,0.00,,,0.00,VWS V14.01,2013-02-14 09:00:00,
2013-02-14 04:15:00,26.0,24.3,29.88,SSW,209,0.0,2.0,93,0.00,,,0.00,VWS V14.01,2013-02-14 09:15:00,
2013-02-14 04:30:00,25.7,24.0,29.89,SSW,209,0.0,1.0,93,0.00,,,0.00,VWS V14.01,2013-02-14 09:30:00,
2013-02-14 04:45:00,25.3,23.3,29.89,East,84,0.0,2.0,92,0.00,,,0.00,VWS V14.01,2013-02-14 09:45:00,
2013-02-14 05:00:00,25.2,23.5,29.89,SSE,155,0.0,2.0,93,0.00,,,0.00,VWS V14.01,2013-02-14 10:00:00,
2013-02-14 05:15:00,25.6,23.9,29.89,SW,234,0.0,3.0,93,0.00,,,0.00,VWS V14.01,2013-02-14 10:15:00,
2013-02-14 05:30:00,26.3,24.6,29.89,WSW,237,0.0,6.0,93,0.00,,,0.00,VWS V14.01,2013-02-14 10:30:00,
2013-02-14 05:45:00,26.6,24.9,29.89,NNW,336,0.0,3.0,93,0.00,,,0.00,VWS V14.01,2013-02-14 10:45:00,
2013-02-14 06:00:00,26.7,25.0,29.89,SW,218,0.0,2.0,93,0.00,,,0.00,VWS V14.01,2013-02-14 11:00:00,
2013-02-14 06:15:00,27.0,25.2,29.89,SW,216,0.0,3.0,93,0.00,,,0.00,VWS V14.01,2013-02-14 11:15:00,
2013-02-14 06:30:00,27.2,25.5,29.89,WNW,295,0.0,2.0,93,0.00,,,0.00,VWS V14.01,2013-02-14 11:30:00,
2013-02-14 06:45:00,27.5,25.8,29.89,SW,234,0.0,3.0,93,0.00,,,0.00,VWS V14.01,2013-02-14 11:45:00,
2013-02-14 07:00:00,27.8,26.3,29.90,SW,234,0.0,2.0,94,0.00,,,0.00,VWS V14.01,2013-02-14 12:00:00,
2013-02-14 07:15:00,28.0,26.5,29.89,NE,38,0.0,2.0,94,0.00,,,0.00,VWS V14.01,2013-02-14 12:15:00,
2013-02-14 07:30:00,28.3,26.8,29.90,NE,39,0.0,2.0,94,0.00,,,0.00,VWS V14.01,2013-02-14 12:30:00,
2013-02-14 07:45:00,28.4,26.9,29.91,NE,38,0.0,4.0,94,0.00,,,0.00,VWS V14.01,2013-02-14 12:45:00,
2013-02-14 08:00:00,28.5,27.0,29.90,NE,40,0.0,2.0,94,0.00,,,0.00,VWS V14.01,2013-02-14 13:00:00,
2013-02-14 08:15:00,28.8,27.3,29.90,SSE,148,1.0,3.0,94,0.00,,,0.00,VWS V14.01,2013-02-14 13:15:00,
2013-02-14 08:30:00,29.2,27.7,29.91,NNW,342,0.0,3.0,94,0.00,,,0.00,VWS V14.01,2013-02-14 13:30:00,
2013-02-14 08:45:00,29.6,28.1,29.91,SW,234,0.0,3.0,94,0.00,,,0.00,VWS V14.01,2013-02-14 13:45:00,
2013-02-14 09:00:00,30.1,28.6,29.91,South,178,0.0,4.0,94,0.00,,,0.00,VWS V14.01,2013-02-14 14:00:00,
2013-02-14 09:15:00,30.8,29.3,29.91,WNW,286,0.0,3.0,94,0.01,,,0.01,VWS V14.01,2013-02-14 14:15:00,
2013-02-14 09:30:00,31.2,29.7,29.91,West,259,0.0,6.0,94,0.01,,,0.01,VWS V14.01,2013-02-14 14:30:00,
2013-02-14 09:45:00,31.5,29.7,29.91,WSW,241,3.0,6.0,93,0.01,,,0.01,VWS V14.01,2013-02-14 14:45:00,
2013-02-14 10:00:00,31.9,30.1,29.91,East,82,2.0,5.0,93,0.01,,,0.01,VWS V14.01,2013-02-14 15:00:00,
2013-02-14 10:15:00,32.1,30.3,29.90,NNE,33,0.0,5.0,93,0.01,,,0.01,VWS V14.01,2013-02-14 15:15:00,
2013-02-14 10:30:00,32.2,30.4,29.90,WSW,237,2.0,6.0,93,0.00,,,0.01,VWS V14.01,2013-02-14 15:30:00,
2013-02-14 10:45:00,32.6,30.8,29.90,West,275,0.0,5.0,93,0.00,,,0.01,VWS V14.01,2013-02-14 15:45:00,
2013-02-14 11:00:00,32.9,31.1,29.90,NW,307,0.0,6.0,93,0.00,,,0.01,VWS V14.01,2013-02-14 16:00:00,
2013-02-14 11:15:00,33.1,31.3,29.90,WSW,246,0.0,4.0,93,0.00,,,0.01,VWS V14.01,2013-02-14 16:15:00,
2013-02-14 11:30:00,33.1,31.0,29.90,SSE,167,3.0,4.0,92,0.00,,,0.01,VWS V14.01,2013-02-14 16:30:00,
2013-02-14 11:45:00,33.3,31.2,29.90,South,180,0.0,7.0,92,0.00,,,0.01,VWS V14.01,2013-02-14 16:45:00,
2013-02-14 12:00:00,33.3,31.2,29.90,SW,219,0.0,5.0,92,0.00,,,0.01,VWS V14.01,2013-02-14 17:00:00,
2013-02-14 12:15:00,33.5,31.4,29.90,West,264,0.0,4.0,92,0.00,,,0.01,VWS V14.01,2013-02-14 17:15:00,
2013-02-14 12:30:00,33.5,31.2,29.89,West,270,2.0,7.0,91,0.00,,,0.01,VWS V14.01,2013-02-14 17:30:00,
2013-02-14 12:45:00,33.5,31.2,29.88,SW,226,2.0,6.0,91,0.00,,,0.01,VWS V14.01,2013-02-14 17:45:00,
2013-02-14 13:00:00,33.4,31.3,29.88,WSW,237,3.0,9.0,92,0.00,,,0.01,VWS V14.01,2013-02-14 18:00:00,
2013-02-14 13:15:00,33.4,31.3,29.88,West,271,1.0,7.0,92,0.00,,,0.01,VWS V14.01,2013-02-14 18:15:00,
2013-02-14 13:30:00,33.4,31.3,29.87,SE,133,2.0,6.0,92,0.00,,,0.01,VWS V14.01,2013-02-14 18:30:00,
2013-02-14 13:45:00,33.3,31.5,29.87,South,190,0.0,6.0,93,0.00,,,0.01,VWS V14.01,2013-02-14 18:45:00,
2013-02-14 14:00:00,33.2,31.4,29.86,SE,127,0.0,11.0,93,0.00,,,0.01,VWS V14.01,2013-02-14 19:00:00,
2013-02-14 14:15:00,33.5,32.0,29.85,East,82,4.0,6.0,94,0.00,,,0.01,VWS V14.01,2013-02-14 19:15:00,
2013-02-14 14:30:00,33.6,32.1,29.85,NNW,335,0.0,5.0,94,0.00,,,0.01,VWS V14.01,2013-02-14 19:30:00,
2013-02-14 14:45:00,33.8,32.3,29.84,ESE,118,0.0,3.0,94,0.00,,,0.01,VWS V14.01,2013-02-14 19:45:00,
2013-02-14 15:00:00,34.0,32.2,29.84,South,177,3.0,5.0,93,0.00,,,0.01,VWS V14.01,2013-02-14 20:00:00,
2013-02-14 15:15:00,34.1,32.3,29.85,WSW,238,0.0,10.0,93,0.00,,,0.01,VWS V14.01,2013-02-14 20:15:00,
2013-02-14 15:30:00,34.0,32.2,29.85,SSW,200,0.0,9.0,93,0.00,,,0.01,VWS V14.01,2013-02-14 20:30:00,
2013-02-14 15:45:00,34.1,32.3,29.84,SW,224,2.0,6.0,93,0.00,,,0.01,VWS V14.01,2013-02-14 20:45:00,
2013-02-14 16:00:00,34.1,32.3,29.84,South,186,2.0,14.0,93,0.00,,,0.01,VWS V14.01,2013-02-14 21:00:00,
2013-02-14 16:15:00,34.2,32.4,29.85,WSW,237,0.0,11.0,93,0.00,,,0.01,VWS V14.01,2013-02-14 21:15:00,
2013-02-14 16:30:00,34.3,32.5,29.84,WSW,255,1.0,9.0,93,0.00,,,0.01,VWS V14.01,2013-02-14 21:30:00,
2013-02-14 16:45:00,34.4,32.6,29.84,South,186,0.0,7.0,93,0.00,,,0.01,VWS V14.01,2013-02-14 21:45:00,
2013-02-14 17:00:00,34.4,32.6,29.83,SW,230,0.0,11.0,93,0.00,,,0.01,VWS V14.01,2013-02-14 22:00:00,
2013-02-14 17:15:00,34.4,32.6,29.85,WNW,295,0.0,6.0,93,0.00,,,0.01,VWS V14.01,2013-02-14 22:15:00,
2013-02-14 17:30:00,34.6,32.8,29.86,SSW,210,4.0,7.0,93,0.00,,,0.01,VWS V14.01,2013-02-14 22:30:00,
2013-02-14 17:45:00,34.8,32.7,29.86,West,274,1.0,5.0,92,0.00,,,0.01,VWS V14.01,2013-02-14 22:45:00,
2013-02-14 18:00:00,34.9,32.8,29.86,West,265,1.0,4.0,92,0.00,,,0.01,VWS V14.01,2013-02-14 23:00:00,
2013-02-14 18:15:00,34.4,32.3,29.86,SW,228,0.0,6.0,92,0.00,,,0.01,VWS V14.01,2013-02-14 23:15:00,
2013-02-14 18:30:00,34.3,32.2,29.86,East,94,1.0,4.0,92,0.00,,,0.01,VWS V14.01,2013-02-14 23:30:00,
2013-02-14 18:45:00,34.4,32.6,29.86,SSW,213,0.0,3.0,93,0.00,,,0.01,VWS V14.01,2013-02-14 23:45:00,
2013-02-14 19:00:00,34.5,32.7,29.86,West,261,0.0,3.0,93,0.00,,,0.01,VWS V14.01,2013-02-15 00:00:00,
2013-02-14 19:15:00,34.4,32.6,29.86,SW,229,0.0,3.0,93,0.00,,,0.01,VWS V14.01,2013-02-15 00:15:00,
2013-02-14 19:30:00,34.0,32.2,29.86,SW,219,0.0,3.0,93,0.00,,,0.01,VWS V14.01,2013-02-15 00:30:00,
2013-02-14 19:45:00,34.0,32.2,29.86,WSW,244,0.0,4.0,93,0.00,,,0.01,VWS V14.01,2013-02-15 00:45:00,
2013-02-14 20:00:00,33.9,32.4,29.86,WSW,244,0.0,3.0,94,0.00,,,0.01,VWS V14.01,2013-02-15 01:00:00,
2013-02-14 20:15:00,35.4,34.1,29.86,WSW,254,2.0,8.0,95,0.00,,,0.01,VWS V14.01,2013-02-15 01:15:00,
2013-02-14 20:30:00,36.5,34.9,29.86,WSW,255,2.0,6.0,94,0.00,,,0.01,VWS V14.01,2013-02-15 01:30:00,
2013-02-14 20:45:00,37.1,35.3,29.88,WSW,242,0.0,9.0,93,0.00,,,0.01,VWS V14.01,2013-02-15 01:45:00,
2013-02-14 21:00:00,37.4,35.3,29.88,West,263,4.0,13.0,92,0.00,,,0.01,VWS V14.01,2013-02-15 02:00:00,
2013-02-14 21:15:00,37.4,35.0,29.89,West,267,1.0,6.0,91,0.00,,,0.01,VWS V14.01,2013-02-15 02:15:00,
2013-02-14 21:30:00,37.3,34.9,29.90,West,271,3.0,7.0,91,0.00,,,0.01,VWS V14.01,2013-02-15 02:30:00,
2013-02-14 21:45:00,36.9,34.0,29.90,NW,307,2.0,10.0,89,0.00,,,0.01,VWS V14.01,2013-02-15 02:45:00,
2013-02-14 22:00:00,36.8,32.7,29.91,WSW,253,7.0,19.0,85,0.00,,,0.01,VWS V14.01,2013-02-15 03:00:00,
2013-02-14 22:15:00,36.3,31.9,29.92,WSW,256,4.0,15.0,84,0.00,,,0.01,VWS V14.01,2013-02-15 03:15:00,
2013-02-14 22:30:00,36.0,31.4,29.92,West,277,5.0,14.0,83,0.00,,,0.01,VWS V14.01,2013-02-15 03:30:00,
2013-02-14 22:45:00,35.5,31.1,29.92,WNW,284,6.0,11.0,84,0.00,,,0.01,VWS V14.01,2013-02-15 03:45:00,
2013-02-14 23:00:00,35.2,30.6,29.92,West,259,2.0,12.0,83,0.00,,,0.01,VWS V14.01,2013-02-15 04:00:00,
2013-02-14 23:15:00,34.8,29.9,29.93,WNW,286,4.0,9.0,82,0.00,,,0.01,VWS V14.01,2013-02-15 04:15:00,
2013-02-14 23:30:00,34.4,29.2,29.93,WNW,286,1.0,10.0,81,0.00,,,0.01,VWS V14.01,2013-02-15 04:30:00,
2013-02-14 23:45:00,34.2,29.0,29.93,WSW,249,2.0,10.0,81,0.00,,,0.01,VWS V14.01,2013-02-15 04:45:00,